Grand Canyon Natl Park, Arizona
Current Conditions -  °F | °C
As of 2:54 AM on Friday 21 Nov 2014 (Local Time) from KGCN Reporting Station
Clear Clear  
Wind Chill: -3°   Ceiling: Unl
Heat Index: -3°   Visibility: 10mi
Dew Point: -9°   Wind: 3mph
Humidity: 61%   Direction: NA
Pressure: 30.03"   Gusts: NA
Location:  36.2°N, 112.07°W
Report Text: KGCN 210954Z VRB03KT 10SM CLR M03/M09 A3003 RMK AO2 SLP142 T10281094
Loading
Personal Weather Stations






























Interactive Weather Map New forecast layout! Learn more

10-Day Weather Forecast

Advertisements
Track Severe Weather on mobile